sensor_id;sensor_type;location;lat;lon;timestamp;P1;durP1;ratioP1;P2;durP2;ratioP2
59193;SDS011;44967;48.598;15.650;2022-08-19T00:00:29;2.88;;;1.80;;
59193;SDS011;44967;48.598;15.650;2022-08-19T00:02:55;3.17;;;2.03;;
59193;SDS011;44967;48.598;15.650;2022-08-19T00:05:21;5.32;;;1.77;;
59193;SDS011;44967;48.598;15.650;2022-08-19T00:07:47;2.85;;;1.80;;
59193;SDS011;44967;48.598;15.650;2022-08-19T00:10:15;5.50;;;2.15;;
59193;SDS011;44967;48.598;15.650;2022-08-19T00:12:42;5.60;;;2.15;;
59193;SDS011;44967;48.598;15.650;2022-08-19T00:15:09;2.80;;;1.98;;
59193;SDS011;44967;48.598;15.650;2022-08-19T00:17:37;6.32;;;2.95;;
59193;SDS011;44967;48.598;15.650;2022-08-19T00:20:07;7.18;;;2.15;;
59193;SDS011;44967;48.598;15.650;2022-08-19T00:22:36;4.63;;;2.42;;
59193;SDS011;44967;48.598;15.650;2022-08-19T00:25:03;7.85;;;2.50;;
59193;SDS011;44967;48.598;15.650;2022-08-19T00:27:31;3.55;;;1.92;;
59193;SDS011;44967;48.598;15.650;2022-08-19T00:29:57;6.88;;;2.20;;
59193;SDS011;44967;48.598;15.650;2022-08-19T00:32:24;2.55;;;1.50;;
59193;SDS011;44967;48.598;15.650;2022-08-19T00:34:51;4.18;;;2.33;;
59193;SDS011;44967;48.598;15.650;2022-08-19T00:37:18;5.38;;;2.55;;
59193;SDS011;44967;48.598;15.650;2022-08-19T00:39:48;4.85;;;2.20;;
59193;SDS011;44967;48.598;15.650;2022-08-19T00:42:14;5.15;;;2.10;;
59193;SDS011;44967;48.598;15.650;2022-08-19T00:44:40;4.78;;;2.10;;
59193;SDS011;44967;48.598;15.650;2022-08-19T00:47:07;3.53;;;1.83;;
59193;SDS011;44967;48.598;15.650;2022-08-19T00:49:37;3.50;;;2.33;;
59193;SDS011;44967;48.598;15.650;2022-08-19T00:52:07;2.70;;;2.10;;
59193;SDS011;44967;48.598;15.650;2022-08-19T00:54:37;5.25;;;2.35;;
59193;SDS011;44967;48.598;15.650;2022-08-19T00:57:06;3.38;;;1.98;;
59193;SDS011;44967;48.598;15.650;2022-08-19T00:59:37;3.78;;;1.90;;
59193;SDS011;44967;48.598;15.650;2022-08-19T01:02:06;2.50;;;2.25;;
59193;SDS011;44967;48.598;15.650;2022-08-19T01:04:32;2.85;;;2.10;;
59193;SDS011;44967;48.598;15.650;2022-08-19T01:06:58;5.65;;;2.67;;
59193;SDS011;44967;48.598;15.650;2022-08-19T01:09:24;4.93;;;2.17;;
59193;SDS011;44967;48.598;15.650;2022-08-19T01:11:50;2.67;;;2.10;;
59193;SDS011;44967;48.598;15.650;2022-08-19T01:14:16;6.78;;;2.67;;
59193;SDS011;44967;48.598;15.650;2022-08-19T01:16:43;3.90;;;2.25;;
59193;SDS011;44967;48.598;15.650;2022-08-19T01:19:54;4.60;;;2.53;;
59193;SDS011;44967;48.598;15.650;2022-08-19T01:22:03;4.15;;;1.85;;
59193;SDS011;44967;48.598;15.650;2022-08-19T01:24:36;3.83;;;2.20;;
59193;SDS011;44967;48.598;15.650;2022-08-19T01:27:03;4.47;;;1.95;;
59193;SDS011;44967;48.598;15.650;2022-08-19T01:29:30;3.10;;;2.20;;
59193;SDS011;44967;48.598;15.650;2022-08-19T01:31:56;5.88;;;2.13;;
59193;SDS011;44967;48.598;15.650;2022-08-19T01:34:22;5.78;;;2.30;;
59193;SDS011;44967;48.598;15.650;2022-08-19T01:36:48;6.35;;;2.45;;
59193;SDS011;44967;48.598;15.650;2022-08-19T01:39:20;5.18;;;2.42;;
59193;SDS011;44967;48.598;15.650;2022-08-19T01:41:48;6.28;;;2.20;;
59193;SDS011;44967;48.598;15.650;2022-08-19T01:44:15;3.85;;;2.17;;
59193;SDS011;44967;48.598;15.650;2022-08-19T01:46:41;2.90;;;2.60;;
59193;SDS011;44967;48.598;15.650;2022-08-19T01:49:07;4.65;;;2.20;;
59193;SDS011;44967;48.598;15.650;2022-08-19T01:51:33;3.70;;;2.10;;
59193;SDS011;44967;48.598;15.650;2022-08-19T01:54:00;6.07;;;2.35;;
59193;SDS011;44967;48.598;15.650;2022-08-19T01:56:26;6.63;;;2.20;;
59193;SDS011;44967;48.598;15.650;2022-08-19T01:58:54;2.45;;;2.03;;
59193;SDS011;44967;48.598;15.650;2022-08-19T02:01:23;3.45;;;2.10;;
59193;SDS011;44967;48.598;15.650;2022-08-19T02:03:48;4.35;;;2.38;;
59193;SDS011;44967;48.598;15.650;2022-08-19T02:06:14;5.47;;;2.50;;
59193;SDS011;44967;48.598;15.650;2022-08-19T02:08:42;4.03;;;2.35;;
59193;SDS011;44967;48.598;15.650;2022-08-19T02:11:18;7.47;;;2.80;;
59193;SDS011;44967;48.598;15.650;2022-08-19T02:13:49;3.42;;;2.50;;
59193;SDS011;44967;48.598;15.650;2022-08-19T02:16:16;3.80;;;2.10;;
59193;SDS011;44967;48.598;15.650;2022-08-19T02:18:43;8.00;;;2.63;;
59193;SDS011;44967;48.598;15.650;2022-08-19T02:21:09;4.95;;;2.03;;
59193;SDS011;44967;48.598;15.650;2022-08-19T02:23:36;3.88;;;2.00;;
59193;SDS011;44967;48.598;15.650;2022-08-19T02:26:02;4.25;;;2.20;;
59193;SDS011;44967;48.598;15.650;2022-08-19T02:28:27;6.38;;;2.35;;
59193;SDS011;44967;48.598;15.650;2022-08-19T02:30:53;5.90;;;2.10;;
59193;SDS011;44967;48.598;15.650;2022-08-19T02:33:19;4.25;;;2.30;;
59193;SDS011;44967;48.598;15.650;2022-08-19T02:35:45;4.63;;;2.17;;
59193;SDS011;44967;48.598;15.650;2022-08-19T02:38:12;3.92;;;2.00;;
59193;SDS011;44967;48.598;15.650;2022-08-19T02:40:51;3.78;;;1.90;;
59193;SDS011;44967;48.598;15.650;2022-08-19T02:43:20;4.07;;;2.22;;
59193;SDS011;44967;48.598;15.650;2022-08-19T02:45:46;4.35;;;2.47;;
59193;SDS011;44967;48.598;15.650;2022-08-19T02:48:14;8.68;;;2.95;;
59193;SDS011;44967;48.598;15.650;2022-08-19T02:50:42;7.28;;;2.40;;
59193;SDS011;44967;48.598;15.650;2022-08-19T02:53:08;6.60;;;2.58;;
59193;SDS011;44967;48.598;15.650;2022-08-19T02:55:33;4.10;;;2.28;;
59193;SDS011;44967;48.598;15.650;2022-08-19T02:57:59;6.93;;;2.17;;
59193;SDS011;44967;48.598;15.650;2022-08-19T03:00:25;7.63;;;3.22;;
59193;SDS011;44967;48.598;15.650;2022-08-19T03:02:52;4.90;;;2.28;;
59193;SDS011;44967;48.598;15.650;2022-08-19T03:05:18;2.78;;;2.08;;
59193;SDS011;44967;48.598;15.650;2022-08-19T03:07:44;3.22;;;2.40;;
59193;SDS011;44967;48.598;15.650;2022-08-19T03:10:11;5.07;;;2.22;;
59193;SDS011;44967;48.598;15.650;2022-08-19T03:12:38;9.27;;;2.63;;
59193;SDS011;44967;48.598;15.650;2022-08-19T03:15:05;4.85;;;1.92;;
59193;SDS011;44967;48.598;15.650;2022-08-19T03:17:32;6.05;;;2.40;;
59193;SDS011;44967;48.598;15.650;2022-08-19T03:19:59;6.40;;;2.20;;
59193;SDS011;44967;48.598;15.650;2022-08-19T03:22:24;9.07;;;2.70;;
59193;SDS011;44967;48.598;15.650;2022-08-19T03:24:50;6.18;;;2.03;;
59193;SDS011;44967;48.598;15.650;2022-08-19T03:27:16;6.65;;;2.50;;
59193;SDS011;44967;48.598;15.650;2022-08-19T03:29:43;5.72;;;2.42;;
59193;SDS011;44967;48.598;15.650;2022-08-19T03:32:08;5.68;;;2.42;;
59193;SDS011;44967;48.598;15.650;2022-08-19T03:34:36;3.20;;;1.90;;
59193;SDS011;44967;48.598;15.650;2022-08-19T03:37:04;6.15;;;2.42;;
59193;SDS011;44967;48.598;15.650;2022-08-19T03:39:35;4.70;;;2.20;;
59193;SDS011;44967;48.598;15.650;2022-08-19T03:42:02;4.30;;;2.30;;
59193;SDS011;44967;48.598;15.650;2022-08-19T03:44:28;5.53;;;1.90;;
59193;SDS011;44967;48.598;15.650;2022-08-19T03:46:56;4.50;;;1.90;;
59193;SDS011;44967;48.598;15.650;2022-08-19T03:49:24;8.68;;;5.38;;
59193;SDS011;44967;48.598;15.650;2022-08-19T03:51:52;12.05;;;6.75;;
59193;SDS011;44967;48.598;15.650;2022-08-19T03:54:20;8.18;;;5.32;;
59193;SDS011;44967;48.598;15.650;2022-08-19T03:56:49;8.75;;;4.63;;
59193;SDS011;44967;48.598;15.650;2022-08-19T03:59:22;7.13;;;4.68;;
59193;SDS011;44967;48.598;15.650;2022-08-19T04:01:52;5.43;;;3.90;;
59193;SDS011;44967;48.598;15.650;2022-08-19T04:04:19;5.07;;;3.53;;
59193;SDS011;44967;48.598;15.650;2022-08-19T04:06:44;3.90;;;3.33;;
59193;SDS011;44967;48.598;15.650;2022-08-19T04:09:12;3.53;;;3.15;;
59193;SDS011;44967;48.598;15.650;2022-08-19T04:11:41;10.18;;;3.38;;
59193;SDS011;44967;48.598;15.650;2022-08-19T04:14:20;4.47;;;3.28;;
59193;SDS011;44967;48.598;15.650;2022-08-19T04:16:48;3.95;;;2.78;;
59193;SDS011;44967;48.598;15.650;2022-08-19T04:19:14;7.18;;;4.15;;
59193;SDS011;44967;48.598;15.650;2022-08-19T04:21:42;8.30;;;3.70;;
59193;SDS011;44967;48.598;15.650;2022-08-19T04:24:10;5.47;;;3.63;;
59193;SDS011;44967;48.598;15.650;2022-08-19T04:26:37;4.30;;;3.50;;
59193;SDS011;44967;48.598;15.650;2022-08-19T04:29:06;6.65;;;3.55;;
59193;SDS011;44967;48.598;15.650;2022-08-19T04:31:33;7.03;;;3.85;;
59193;SDS011;44967;48.598;15.650;2022-08-19T04:34:02;5.88;;;3.70;;
59193;SDS011;44967;48.598;15.650;2022-08-19T04:36:34;6.47;;;3.25;;
59193;SDS011;44967;48.598;15.650;2022-08-19T04:39:05;5.10;;;3.17;;
59193;SDS011;44967;48.598;15.650;2022-08-19T04:41:34;4.80;;;3.40;;
59193;SDS011;44967;48.598;15.650;2022-08-19T04:44:19;6.90;;;2.63;;
59193;SDS011;44967;48.598;15.650;2022-08-19T04:46:46;4.38;;;2.75;;
59193;SDS011;44967;48.598;15.650;2022-08-19T04:49:14;4.38;;;2.97;;
59193;SDS011;44967;48.598;15.650;2022-08-19T04:51:42;6.57;;;3.00;;
59193;SDS011;44967;48.598;15.650;2022-08-19T04:54:09;5.07;;;2.42;;
59193;SDS011;44967;48.598;15.650;2022-08-19T04:56:35;3.55;;;3.22;;
59193;SDS011;44967;48.598;15.650;2022-08-19T04:59:01;3.70;;;2.63;;
59193;SDS011;44967;48.598;15.650;2022-08-19T05:01:30;8.77;;;3.42;;
59193;SDS011;44967;48.598;15.650;2022-08-19T05:04:01;3.95;;;3.05;;
59193;SDS011;44967;48.598;15.650;2022-08-19T05:06:29;9.85;;;2.95;;
59193;SDS011;44967;48.598;15.650;2022-08-19T05:08:58;3.70;;;2.78;;
59193;SDS011;44967;48.598;15.650;2022-08-19T05:11:25;6.95;;;2.92;;
59193;SDS011;44967;48.598;15.650;2022-08-19T05:13:53;5.50;;;2.78;;
59193;SDS011;44967;48.598;15.650;2022-08-19T05:16:20;5.90;;;2.80;;
59193;SDS011;44967;48.598;15.650;2022-08-19T05:18:47;6.85;;;2.53;;
59193;SDS011;44967;48.598;15.650;2022-08-19T05:21:32;4.40;;;2.97;;
59193;SDS011;44967;48.598;15.650;2022-08-19T05:24:16;4.45;;;2.88;;
59193;SDS011;44967;48.598;15.650;2022-08-19T05:26:49;7.25;;;3.10;;
59193;SDS011;44967;48.598;15.650;2022-08-19T05:29:20;4.93;;;3.35;;
59193;SDS011;44967;48.598;15.650;2022-08-19T05:31:47;6.78;;;2.95;;
59193;SDS011;44967;48.598;15.650;2022-08-19T05:34:14;3.30;;;2.63;;
59193;SDS011;44967;48.598;15.650;2022-08-19T05:36:47;3.88;;;2.40;;
59193;SDS011;44967;48.598;15.650;2022-08-19T05:39:18;5.97;;;2.85;;
59193;SDS011;44967;48.598;15.650;2022-08-19T05:41:47;4.75;;;2.72;;
59193;SDS011;44967;48.598;15.650;2022-08-19T05:44:18;5.53;;;2.53;;
59193;SDS011;44967;48.598;15.650;2022-08-19T05:46:46;6.75;;;3.38;;
59193;SDS011;44967;48.598;15.650;2022-08-19T05:49:13;6.93;;;4.43;;
59193;SDS011;44967;48.598;15.650;2022-08-19T05:51:40;5.85;;;3.83;;
59193;SDS011;44967;48.598;15.650;2022-08-19T05:54:08;6.97;;;4.28;;
59193;SDS011;44967;48.598;15.650;2022-08-19T05:56:34;4.38;;;3.95;;
59193;SDS011;44967;48.598;15.650;2022-08-19T05:59:03;5.13;;;3.58;;
59193;SDS011;44967;48.598;15.650;2022-08-19T06:01:33;9.30;;;4.53;;
59193;SDS011;44967;48.598;15.650;2022-08-19T06:04:00;6.40;;;3.85;;
59193;SDS011;44967;48.598;15.650;2022-08-19T06:06:27;9.60;;;5.15;;
59193;SDS011;44967;48.598;15.650;2022-08-19T06:08:53;14.77;;;6.22;;
59193;SDS011;44967;48.598;15.650;2022-08-19T06:13:51;8.77;;;5.03;;
59193;SDS011;44967;48.598;15.650;2022-08-19T06:16:19;5.38;;;4.05;;
59193;SDS011;44967;48.598;15.650;2022-08-19T06:18:54;8.35;;;5.18;;
59193;SDS011;44967;48.598;15.650;2022-08-19T06:21:22;5.78;;;3.97;;
59193;SDS011;44967;48.598;15.650;2022-08-19T06:23:51;8.75;;;5.30;;
59193;SDS011;44967;48.598;15.650;2022-08-19T06:26:17;6.32;;;4.22;;
59193;SDS011;44967;48.598;15.650;2022-08-19T06:28:45;5.00;;;4.50;;
59193;SDS011;44967;48.598;15.650;2022-08-19T06:31:22;7.10;;;4.93;;
59193;SDS011;44967;48.598;15.650;2022-08-19T06:33:50;5.82;;;4.28;;
59193;SDS011;44967;48.598;15.650;2022-08-19T06:36:20;6.07;;;4.10;;
59193;SDS011;44967;48.598;15.650;2022-08-19T06:39:05;8.55;;;5.57;;
59193;SDS011;44967;48.598;15.650;2022-08-19T06:41:51;5.22;;;4.18;;
59193;SDS011;44967;48.598;15.650;2022-08-19T06:44:19;4.65;;;4.10;;
59193;SDS011;44967;48.598;15.650;2022-08-19T06:46:45;8.20;;;5.18;;
59193;SDS011;44967;48.598;15.650;2022-08-19T06:49:11;7.35;;;4.10;;
59193;SDS011;44967;48.598;15.650;2022-08-19T06:51:43;6.53;;;4.45;;
59193;SDS011;44967;48.598;15.650;2022-08-19T06:54:10;7.05;;;4.22;;
59193;SDS011;44967;48.598;15.650;2022-08-19T06:56:36;4.47;;;4.00;;
59193;SDS011;44967;48.598;15.650;2022-08-19T06:59:04;6.47;;;4.72;;
59193;SDS011;44967;48.598;15.650;2022-08-19T07:01:35;6.00;;;5.13;;
59193;SDS011;44967;48.598;15.650;2022-08-19T07:04:03;7.75;;;4.20;;
59193;SDS011;44967;48.598;15.650;2022-08-19T07:06:31;8.82;;;5.60;;
59193;SDS011;44967;48.598;15.650;2022-08-19T07:08:57;6.07;;;4.22;;
59193;SDS011;44967;48.598;15.650;2022-08-19T07:11:23;4.80;;;4.40;;
59193;SDS011;44967;48.598;15.650;2022-08-19T07:13:50;7.13;;;5.57;;
59193;SDS011;44967;48.598;15.650;2022-08-19T07:16:17;5.97;;;4.80;;
59193;SDS011;44967;48.598;15.650;2022-08-19T07:18:47;8.30;;;5.13;;
59193;SDS011;44967;48.598;15.650;2022-08-19T07:21:18;6.60;;;4.65;;
59193;SDS011;44967;48.598;15.650;2022-08-19T07:23:46;10.75;;;6.05;;
59193;SDS011;44967;48.598;15.650;2022-08-19T07:26:18;9.82;;;6.13;;
59193;SDS011;44967;48.598;15.650;2022-08-19T07:28:47;7.38;;;5.88;;
59193;SDS011;44967;48.598;15.650;2022-08-19T07:31:14;6.18;;;5.35;;
59193;SDS011;44967;48.598;15.650;2022-08-19T07:33:43;6.60;;;4.80;;
59193;SDS011;44967;48.598;15.650;2022-08-19T07:36:10;10.27;;;6.50;;
59193;SDS011;44967;48.598;15.650;2022-08-19T07:38:38;6.88;;;5.72;;
59193;SDS011;44967;48.598;15.650;2022-08-19T07:41:06;9.65;;;6.15;;
59193;SDS011;44967;48.598;15.650;2022-08-19T07:43:34;6.28;;;4.55;;
59193;SDS011;44967;48.598;15.650;2022-08-19T07:46:00;7.50;;;5.70;;
59193;SDS011;44967;48.598;15.650;2022-08-19T07:48:27;8.95;;;5.55;;
59193;SDS011;44967;48.598;15.650;2022-08-19T07:51:00;6.55;;;5.63;;
59193;SDS011;44967;48.598;15.650;2022-08-19T07:53:28;12.18;;;6.65;;
59193;SDS011;44967;48.598;15.650;2022-08-19T07:55:55;7.68;;;6.22;;
59193;SDS011;44967;48.598;15.650;2022-08-19T07:58:24;7.20;;;6.30;;
59193;SDS011;44967;48.598;15.650;2022-08-19T08:00:50;10.57;;;5.80;;
59193;SDS011;44967;48.598;15.650;2022-08-19T08:03:17;9.57;;;6.63;;
59193;SDS011;44967;48.598;15.650;2022-08-19T08:05:44;7.00;;;5.88;;
59193;SDS011;44967;48.598;15.650;2022-08-19T08:08:29;7.65;;;6.50;;
59193;SDS011;44967;48.598;15.650;2022-08-19T08:11:15;8.68;;;6.57;;
59193;SDS011;44967;48.598;15.650;2022-08-19T08:13:43;8.30;;;7.13;;
59193;SDS011;44967;48.598;15.650;2022-08-19T08:16:10;8.15;;;7.32;;
59193;SDS011;44967;48.598;15.650;2022-08-19T08:18:36;7.50;;;6.72;;
59193;SDS011;44967;48.598;15.650;2022-08-19T08:21:06;10.38;;;7.03;;
59193;SDS011;44967;48.598;15.650;2022-08-19T08:23:32;8.13;;;7.10;;
59193;SDS011;44967;48.598;15.650;2022-08-19T08:25:59;13.88;;;7.88;;
59193;SDS011;44967;48.598;15.650;2022-08-19T08:28:25;8.63;;;6.65;;
59193;SDS011;44967;48.598;15.650;2022-08-19T08:30:52;9.38;;;7.35;;
59193;SDS011;44967;48.598;15.650;2022-08-19T08:33:20;8.15;;;6.32;;
59193;SDS011;44967;48.598;15.650;2022-08-19T08:35:47;9.15;;;6.60;;
59193;SDS011;44967;48.598;15.650;2022-08-19T08:38:14;7.63;;;6.00;;
59193;SDS011;44967;48.598;15.650;2022-08-19T08:40:47;8.35;;;6.43;;
59193;SDS011;44967;48.598;15.650;2022-08-19T08:43:36;8.30;;;6.30;;
59193;SDS011;44967;48.598;15.650;2022-08-19T08:46:19;8.07;;;6.57;;
59193;SDS011;44967;48.598;15.650;2022-08-19T08:51:52;12.05;;;9.63;;
59193;SDS011;44967;48.598;15.650;2022-08-19T08:54:27;9.15;;;8.25;;
59193;SDS011;44967;48.598;15.650;2022-08-19T08:56:59;7.80;;;6.22;;
59193;SDS011;44967;48.598;15.650;2022-08-19T08:59:28;7.20;;;6.60;;
59193;SDS011;44967;48.598;15.650;2022-08-19T09:01:57;7.10;;;6.50;;
59193;SDS011;44967;48.598;15.650;2022-08-19T09:04:24;6.88;;;6.18;;
59193;SDS011;44967;48.598;15.650;2022-08-19T09:06:51;8.68;;;6.85;;
59193;SDS011;44967;48.598;15.650;2022-08-19T09:09:32;7.90;;;5.82;;
59193;SDS011;44967;48.598;15.650;2022-08-19T09:16:59;6.78;;;6.15;;
59193;SDS011;44967;48.598;15.650;2022-08-19T09:19:28;7.30;;;6.30;;
59193;SDS011;44967;48.598;15.650;2022-08-19T09:21:55;7.25;;;6.53;;
59193;SDS011;44967;48.598;15.650;2022-08-19T09:24:21;7.40;;;6.70;;
59193;SDS011;44967;48.598;15.650;2022-08-19T09:26:46;8.48;;;6.43;;
59193;SDS011;44967;48.598;15.650;2022-08-19T09:29:12;7.30;;;6.28;;
59193;SDS011;44967;48.598;15.650;2022-08-19T09:31:39;12.05;;;6.97;;
59193;SDS011;44967;48.598;15.650;2022-08-19T09:34:04;7.28;;;6.25;;
59193;SDS011;44967;48.598;15.650;2022-08-19T09:36:30;7.72;;;6.93;;
59193;SDS011;44967;48.598;15.650;2022-08-19T09:39:02;7.32;;;6.20;;
59193;SDS011;44967;48.598;15.650;2022-08-19T09:41:29;7.72;;;6.03;;
59193;SDS011;44967;48.598;15.650;2022-08-19T09:43:55;7.90;;;6.60;;
59193;SDS011;44967;48.598;15.650;2022-08-19T09:46:23;5.95;;;5.53;;
59193;SDS011;44967;48.598;15.650;2022-08-19T09:48:52;8.50;;;5.85;;
59193;SDS011;44967;48.598;15.650;2022-08-19T09:51:20;7.07;;;6.38;;
59193;SDS011;44967;48.598;15.650;2022-08-19T09:53:49;7.97;;;5.60;;
59193;SDS011;44967;48.598;15.650;2022-08-19T09:56:16;6.38;;;5.75;;
59193;SDS011;44967;48.598;15.650;2022-08-19T09:58:47;6.43;;;5.85;;
59193;SDS011;44967;48.598;15.650;2022-08-19T10:01:17;6.45;;;5.85;;
59193;SDS011;44967;48.598;15.650;2022-08-19T10:03:50;7.22;;;6.63;;
59193;SDS011;44967;48.598;15.650;2022-08-19T10:06:20;7.28;;;6.57;;
59193;SDS011;44967;48.598;15.650;2022-08-19T10:08:47;7.10;;;6.43;;
59193;SDS011;44967;48.598;15.650;2022-08-19T10:11:13;6.47;;;5.95;;
59193;SDS011;44967;48.598;15.650;2022-08-19T10:13:42;6.90;;;6.28;;
59193;SDS011;44967;48.598;15.650;2022-08-19T10:16:10;5.95;;;5.30;;
59193;SDS011;44967;48.598;15.650;2022-08-19T10:18:42;6.45;;;5.80;;
59193;SDS011;44967;48.598;15.650;2022-08-19T10:21:10;7.40;;;6.38;;
59193;SDS011;44967;48.598;15.650;2022-08-19T10:23:45;6.93;;;6.05;;
59193;SDS011;44967;48.598;15.650;2022-08-19T10:26:13;8.98;;;6.22;;
59193;SDS011;44967;48.598;15.650;2022-08-19T10:28:40;6.68;;;5.82;;
59193;SDS011;44967;48.598;15.650;2022-08-19T10:31:07;6.93;;;6.25;;
59193;SDS011;44967;48.598;15.650;2022-08-19T10:33:45;6.82;;;6.13;;
59193;SDS011;44967;48.598;15.650;2022-08-19T10:36:14;6.95;;;6.25;;
59193;SDS011;44967;48.598;15.650;2022-08-19T10:38:42;7.90;;;6.13;;
59193;SDS011;44967;48.598;15.650;2022-08-19T10:41:14;7.63;;;6.82;;
59193;SDS011;44967;48.598;15.650;2022-08-19T10:46:12;10.02;;;8.07;;
59193;SDS011;44967;48.598;15.650;2022-08-19T10:48:40;7.60;;;6.88;;
59193;SDS011;44967;48.598;15.650;2022-08-19T10:51:07;7.45;;;6.75;;
59193;SDS011;44967;48.598;15.650;2022-08-19T10:53:53;7.90;;;7.20;;
59193;SDS011;44967;48.598;15.650;2022-08-19T10:56:19;9.05;;;7.75;;
59193;SDS011;44967;48.598;15.650;2022-08-19T10:59:03;8.45;;;7.20;;
59193;SDS011;44967;48.598;15.650;2022-08-19T11:01:30;7.95;;;7.18;;
59193;SDS011;44967;48.598;15.650;2022-08-19T11:03:59;7.88;;;6.63;;
59193;SDS011;44967;48.598;15.650;2022-08-19T11:06:25;7.63;;;6.82;;
59193;SDS011;44967;48.598;15.650;2022-08-19T11:08:51;8.23;;;7.43;;
59193;SDS011;44967;48.598;15.650;2022-08-19T11:11:18;8.15;;;7.35;;
59193;SDS011;44967;48.598;15.650;2022-08-19T11:13:44;7.47;;;6.78;;
59193;SDS011;44967;48.598;15.650;2022-08-19T11:16:12;7.53;;;6.82;;
59193;SDS011;44967;48.598;15.650;2022-08-19T11:18:44;7.65;;;6.90;;
59193;SDS011;44967;48.598;15.650;2022-08-19T11:23:45;8.55;;;7.38;;
59193;SDS011;44967;48.598;15.650;2022-08-19T11:26:13;8.20;;;7.40;;
59193;SDS011;44967;48.598;15.650;2022-08-19T11:28:39;7.30;;;6.68;;
59193;SDS011;44967;48.598;15.650;2022-08-19T11:31:13;8.07;;;6.72;;
59193;SDS011;44967;48.598;15.650;2022-08-19T11:33:41;9.25;;;7.25;;
59193;SDS011;44967;48.598;15.650;2022-08-19T11:36:07;7.45;;;6.85;;
59193;SDS011;44967;48.598;15.650;2022-08-19T11:38:34;7.97;;;7.18;;
59193;SDS011;44967;48.598;15.650;2022-08-19T11:41:01;8.57;;;7.68;;
59193;SDS011;44967;48.598;15.650;2022-08-19T11:43:29;7.43;;;6.72;;
59193;SDS011;44967;48.598;15.650;2022-08-19T11:45:56;8.43;;;7.63;;
59193;SDS011;44967;48.598;15.650;2022-08-19T11:48:22;8.15;;;7.35;;
59193;SDS011;44967;48.598;15.650;2022-08-19T11:50:49;9.90;;;6.88;;
59193;SDS011;44967;48.598;15.650;2022-08-19T11:53:16;7.65;;;6.25;;
59193;SDS011;44967;48.598;15.650;2022-08-19T11:55:44;10.25;;;6.22;;
59193;SDS011;44967;48.598;15.650;2022-08-19T11:58:10;12.02;;;6.95;;
59193;SDS011;44967;48.598;15.650;2022-08-19T12:00:37;7.80;;;6.97;;
59193;SDS011;44967;48.598;15.650;2022-08-19T12:03:03;8.50;;;5.70;;
59193;SDS011;44967;48.598;15.650;2022-08-19T12:05:29;6.50;;;5.80;;
59193;SDS011;44967;48.598;15.650;2022-08-19T12:07:55;7.03;;;5.28;;
59193;SDS011;44967;48.598;15.650;2022-08-19T12:10:22;6.88;;;5.60;;
59193;SDS011;44967;48.598;15.650;2022-08-19T12:12:48;5.82;;;5.00;;
59193;SDS011;44967;48.598;15.650;2022-08-19T12:15:14;6.28;;;5.25;;
59193;SDS011;44967;48.598;15.650;2022-08-19T12:17:40;6.68;;;4.68;;
59193;SDS011;44967;48.598;15.650;2022-08-19T12:20:07;5.97;;;4.80;;
59193;SDS011;44967;48.598;15.650;2022-08-19T12:22:35;5.93;;;4.68;;
59193;SDS011;44967;48.598;15.650;2022-08-19T12:25:02;5.55;;;4.63;;
59193;SDS011;44967;48.598;15.650;2022-08-19T12:27:29;5.38;;;4.80;;
59193;SDS011;44967;48.598;15.650;2022-08-19T12:29:54;5.78;;;4.53;;
59193;SDS011;44967;48.598;15.650;2022-08-19T12:32:20;6.13;;;4.78;;
59193;SDS011;44967;48.598;15.650;2022-08-19T12:34:46;6.13;;;5.00;;
59193;SDS011;44967;48.598;15.650;2022-08-19T12:37:12;6.75;;;5.68;;
59193;SDS011;44967;48.598;15.650;2022-08-19T12:39:39;5.25;;;4.75;;
59193;SDS011;44967;48.598;15.650;2022-08-19T12:42:07;5.30;;;4.78;;
59193;SDS011;44967;48.598;15.650;2022-08-19T12:44:35;8.63;;;5.30;;
59193;SDS011;44967;48.598;15.650;2022-08-19T12:47:02;6.65;;;4.90;;
59193;SDS011;44967;48.598;15.650;2022-08-19T12:49:29;7.85;;;5.65;;
59193;SDS011;44967;48.598;15.650;2022-08-19T12:51:56;8.63;;;5.40;;
59193;SDS011;44967;48.598;15.650;2022-08-19T12:54:23;6.57;;;4.78;;
59193;SDS011;44967;48.598;15.650;2022-08-19T12:56:49;7.78;;;5.10;;
59193;SDS011;44967;48.598;15.650;2022-08-19T12:59:14;10.43;;;6.10;;
59193;SDS011;44967;48.598;15.650;2022-08-19T13:01:45;14.30;;;6.22;;
59193;SDS011;44967;48.598;15.650;2022-08-19T13:04:11;5.53;;;5.03;;
59193;SDS011;44967;48.598;15.650;2022-08-19T13:06:37;7.55;;;5.45;;
59193;SDS011;44967;48.598;15.650;2022-08-19T13:09:04;9.25;;;5.53;;
59193;SDS011;44967;48.598;15.650;2022-08-19T13:11:30;7.88;;;5.38;;
59193;SDS011;44967;48.598;15.650;2022-08-19T13:14:00;8.25;;;5.57;;
59193;SDS011;44967;48.598;15.650;2022-08-19T13:16:26;10.77;;;5.78;;
59193;SDS011;44967;48.598;15.650;2022-08-19T13:18:53;6.05;;;5.22;;
59193;SDS011;44967;48.598;15.650;2022-08-19T13:21:21;8.93;;;5.57;;
59193;SDS011;44967;48.598;15.650;2022-08-19T13:23:49;10.05;;;5.43;;
59193;SDS011;44967;48.598;15.650;2022-08-19T13:26:17;7.30;;;4.93;;
59193;SDS011;44967;48.598;15.650;2022-08-19T13:28:44;6.93;;;4.85;;
59193;SDS011;44967;48.598;15.650;2022-08-19T13:31:30;9.30;;;5.22;;
59193;SDS011;44967;48.598;15.650;2022-08-19T13:34:17;5.80;;;5.20;;
59193;SDS011;44967;48.598;15.650;2022-08-19T13:36:44;6.95;;;5.03;;
59193;SDS011;44967;48.598;15.650;2022-08-19T13:39:11;7.75;;;5.05;;
59193;SDS011;44967;48.598;15.650;2022-08-19T13:41:42;8.57;;;5.28;;
59193;SDS011;44967;48.598;15.650;2022-08-19T13:44:12;6.63;;;4.88;;
59193;SDS011;44967;48.598;15.650;2022-08-19T13:46:39;7.90;;;4.88;;
59193;SDS011;44967;48.598;15.650;2022-08-19T13:49:04;6.68;;;4.72;;
59193;SDS011;44967;48.598;15.650;2022-08-19T13:51:30;5.57;;;4.35;;
59193;SDS011;44967;48.598;15.650;2022-08-19T13:53:55;7.85;;;5.03;;
59193;SDS011;44967;48.598;15.650;2022-08-19T13:56:21;6.40;;;5.00;;
59193;SDS011;44967;48.598;15.650;2022-08-19T13:58:47;8.63;;;4.57;;
59193;SDS011;44967;48.598;15.650;2022-08-19T14:01:12;8.00;;;5.28;;
59193;SDS011;44967;48.598;15.650;2022-08-19T14:03:44;7.72;;;4.72;;
59193;SDS011;44967;48.598;15.650;2022-08-19T14:06:10;7.00;;;4.63;;
59193;SDS011;44967;48.598;15.650;2022-08-19T14:08:35;5.22;;;4.72;;
59193;SDS011;44967;48.598;15.650;2022-08-19T14:11:04;5.75;;;5.00;;
59193;SDS011;44967;48.598;15.650;2022-08-19T14:13:30;7.38;;;4.15;;
59193;SDS011;44967;48.598;15.650;2022-08-19T14:15:57;5.95;;;4.63;;
59193;SDS011;44967;48.598;15.650;2022-08-19T14:18:23;7.78;;;4.38;;
59193;SDS011;44967;48.598;15.650;2022-08-19T14:20:50;6.18;;;4.70;;
59193;SDS011;44967;48.598;15.650;2022-08-19T14:23:16;9.00;;;5.00;;
59193;SDS011;44967;48.598;15.650;2022-08-19T14:25:42;10.50;;;4.43;;
59193;SDS011;44967;48.598;15.650;2022-08-19T14:28:08;7.15;;;5.25;;
59193;SDS011;44967;48.598;15.650;2022-08-19T14:30:34;7.55;;;4.70;;
59193;SDS011;44967;48.598;15.650;2022-08-19T14:33:02;10.32;;;5.18;;
59193;SDS011;44967;48.598;15.650;2022-08-19T14:35:28;6.68;;;4.82;;
59193;SDS011;44967;48.598;15.650;2022-08-19T14:37:55;6.70;;;4.03;;
59193;SDS011;44967;48.598;15.650;2022-08-19T14:40:23;9.07;;;4.43;;
59193;SDS011;44967;48.598;15.650;2022-08-19T14:42:56;7.93;;;3.97;;
59193;SDS011;44967;48.598;15.650;2022-08-19T14:45:25;6.72;;;3.80;;
59193;SDS011;44967;48.598;15.650;2022-08-19T14:47:54;7.13;;;3.90;;
59193;SDS011;44967;48.598;15.650;2022-08-19T14:50:19;7.93;;;3.90;;
59193;SDS011;44967;48.598;15.650;2022-08-19T14:52:46;11.18;;;4.53;;
59193;SDS011;44967;48.598;15.650;2022-08-19T14:55:16;9.73;;;3.75;;